Main page
Satellite images 10-day forecastsClimateMarine weather Cyclones Lightning AirportsFAQ Newsletter About
Weather : Europe Africa North America South America Asia Australia-Oceania Others
Languages Contact

Tel Aviv / Ben Gurion, Israel

Ben Gurion Airport

latitude: 32-00N, longitude: 034-54E, elevation: 40 m


METAR: LLBG 062350Z 11020KT CAVOK 21/M00 Q1016 NOSIG
TAF: LLBG 062328Z 0700/0724 11018KT CAVOK TEMPO 0700/0706 11020G30KT BECMG 0709/0711 10010KT TX30/0712Z TN20/0703Z

Time: 02:03 (00:03 UTC)

Current weather observation

The report was made 13 minutes ago, at 23:50 UTC
Wind 20 kt from the East/Southeast
Temperature 21°C
Humidity 25%
Pressure 1016 hPa
Visibility 10 km or more
no clouds below 1500 m and no cumulonimbus

Change units

Forecast

The report was made 35 minutes ago, at 23:28 UTC
Forecast valid from 07 at 00 UTC to 07 at 24 UTC
Wind 18 kt from the East/Southeast
Visibility 10 km or more
no clouds below 1500 m and no cumulonimbus
Temporary
from 07 at 00 UTC to 07 at 06 UTC
Wind 20 kt from the East/Southeast with gusts up to 30 kt
Becoming
from 07 at 09 UTC to 07 at 11 UTC
Wind 10 kt from the East
The information on this site is subject to a disclaimer
Weather : Europe Africa North America South America Asia Australia-Oceania Others
Satellite images 10-day forecastsClimateMarine weather Cyclones Lightning AirportsFAQ Languages Contact Newsletter About